Time;durP1;ratioP1;P1;durP2;ratioP2;P2;SDS_P1;SDS_P2;PMS_P1;PMS_P2;Temp;Humidity;BMP_temperature;BMP_pressure;BME280_temperature;BME280_humidity;BME280_pressure;Samples;Min_cycle;Max_cycle;Signal;HPM_P1;HPM_P2
2022/05/29 00:01:59;;;;;;;5.27;2.90;;;;;;;13.86;57.49;95304.56;4984058;28;20235;-80
2022/05/29 00:04:25;;;;;;;5.17;3.20;;;;;;;13.89;57.21;95309.34;4974644;28;20224;-80
2022/05/29 00:06:56;;;;;;;6.07;2.80;;;;;;;13.78;57.30;95306.41;4976761;28;20201;-81
2022/05/29 00:09:33;;;;;;;3.27;2.73;;;;;;;13.67;57.38;95301.03;4976480;28;20209;-80
2022/05/29 00:12:03;;;;;;;3.43;2.77;;;;;;;13.57;57.61;95306.66;4982768;28;20201;-81
2022/05/29 00:14:30;;;;;;;3.37;3.03;;;;;;;13.64;57.30;95297.09;4984210;28;20232;-80
2022/05/29 00:16:57;;;;;;;3.90;3.13;;;;;;;13.62;57.07;95306.03;4982936;28;20226;-80
2022/05/29 00:19:24;;;;;;;5.03;3.30;;;;;;;13.64;57.23;95297.09;4980741;28;20238;-80
2022/05/29 00:21:52;;;;;;;3.17;2.87;;;;;;;13.60;58.08;95303.66;4979220;28;20205;-81
2022/05/29 00:24:18;;;;;;;6.53;3.60;;;;;;;13.61;58.26;95294.91;4987636;28;20239;-81
2022/05/29 00:26:45;;;;;;;5.97;3.30;;;;;;;13.68;58.02;95295.66;4981540;28;20211;-81
2022/05/29 00:29:13;;;;;;;4.37;3.10;;;;;;;13.74;57.42;95291.47;4981755;28;20207;-80
2022/05/29 00:31:39;;;;;;;3.93;3.00;;;;;;;13.66;58.09;95286.53;4975397;28;20807;-80
2022/05/29 00:34:06;;;;;;;4.83;3.23;;;;;;;13.63;58.11;95281.78;4979581;28;20231;-80
2022/05/29 00:36:35;;;;;;;3.43;3.13;;;;;;;13.67;57.72;95281.13;4971569;28;20208;-81
2022/05/29 00:39:02;;;;;;;5.13;3.10;;;;;;;13.71;57.65;95279.75;4980489;28;20247;-81
2022/05/29 00:41:31;;;;;;;5.30;3.40;;;;;;;13.72;58.09;95278.75;4978933;28;20208;-80
2022/05/29 00:44:13;;;;;;;4.73;3.10;;;;;;;13.61;58.71;95274.22;4974678;28;20344;-82
2022/05/29 00:46:44;;;;;;;3.70;2.90;;;;;;;13.54;58.62;95268.25;4971832;28;20743;-81
2022/05/29 00:49:12;;;;;;;4.50;3.20;;;;;;;13.40;58.71;95270.06;4969768;28;20200;-83
2022/05/29 00:51:42;;;;;;;4.37;3.00;;;;;;;13.40;58.58;95251.16;4965767;28;20253;-83
2022/05/29 00:54:09;;;;;;;4.27;3.00;;;;;;;13.41;58.31;95247.59;4955377;28;20228;-81
2022/05/29 00:56:38;;;;;;;3.87;3.13;;;;;;;13.40;58.59;95248.59;4969894;28;20660;-83
2022/05/29 00:59:08;;;;;;;4.80;3.07;;;;;;;13.44;57.60;95247.19;4958985;28;20568;-82
2022/05/29 01:01:35;;;;;;;4.33;3.23;;;;;;;13.45;57.77;95238.44;4968335;28;20196;-81
2022/05/29 01:04:03;;;;;;;3.97;3.27;;;;;;;13.41;57.74;95232.88;4968775;28;20258;-83
2022/05/29 01:06:30;;;;;;;5.13;3.57;;;;;;;13.33;58.42;95235.66;4968565;28;20208;-81
2022/05/29 01:08:59;;;;;;;4.67;3.40;;;;;;;13.32;58.09;95234.06;4964467;28;20204;-81
2022/05/29 01:11:35;;;;;;;4.00;3.60;;;;;;;13.26;58.12;95232.31;4969257;28;20197;-83
2022/05/29 01:14:13;;;;;;;5.53;3.83;;;;;;;13.14;58.67;95226.09;4967095;28;20671;-82
2022/05/29 01:16:51;;;;;;;4.63;3.57;;;;;;;13.00;59.22;95225.34;4959735;28;20196;-82
2022/05/29 01:19:49;;;;;;;8.27;4.80;;;;;;;12.97;59.66;95214.59;4969002;28;20215;-81
2022/05/29 01:22:38;;;;;;;4.97;3.60;;;;;;;12.97;59.82;95205.06;4967489;28;20200;-82
2022/05/29 01:25:26;;;;;;;4.67;3.47;;;;;;;13.09;59.37;95203.44;4970008;28;20213;-83
2022/05/29 01:28:12;;;;;;;4.53;3.50;;;;;;;12.99;59.71;95197.09;4975911;28;20207;-83
2022/05/29 01:30:44;;;;;;;5.17;3.23;;;;;;;12.96;59.74;95187.97;4965989;28;20226;-82
2022/05/29 01:33:22;;;;;;;4.57;3.50;;;;;;;12.85;60.01;95183.41;4959610;28;20241;-83
2022/05/29 01:35:54;;;;;;;5.97;4.20;;;;;;;12.85;60.03;95186.00;4964294;28;20217;-82
2022/05/29 01:38:25;;;;;;;5.13;4.00;;;;;;;12.82;59.91;95183.81;4966916;28;20235;-83
2022/05/29 01:40:57;;;;;;;5.33;3.57;;;;;;;12.92;59.62;95180.81;4964383;28;20220;-81
2022/05/29 01:43:31;;;;;;;8.87;4.20;;;;;;;12.90;60.04;95168.09;4965694;28;20225;-82
2022/05/29 01:46:03;;;;;;;5.90;3.40;;;;;;;12.97;59.23;95162.91;4967367;28;20200;-83
2022/05/29 01:48:46;;;;;;;7.33;4.00;;;;;;;12.90;59.60;95162.13;4971114;28;20200;-83
2022/05/29 01:51:15;;;;;;;5.23;3.50;;;;;;;12.78;59.17;95157.56;4957704;28;20212;-82
2022/05/29 01:53:45;;;;;;;5.37;3.93;;;;;;;12.68;59.51;95161.56;4955084;28;20232;-82
2022/05/29 01:56:18;;;;;;;5.53;3.90;;;;;;;12.75;59.79;95149.41;4967737;28;20247;-83
2022/05/29 01:58:52;;;;;;;4.70;3.30;;;;;;;12.83;59.27;95148.44;4970491;28;20208;-82
2022/05/29 02:01:23;;;;;;;5.50;3.20;;;;;;;12.87;59.08;95147.03;4966911;28;20204;-83
2022/05/29 02:03:55;;;;;;;6.77;3.73;;;;;;;12.78;59.81;95139.50;4967570;28;20233;-82
2022/05/29 02:06:26;;;;;;;6.33;3.50;;;;;;;12.67;59.85;95136.72;4963031;28;20212;-83
2022/05/29 02:08:57;;;;;;;5.20;3.27;;;;;;;12.71;60.12;95135.31;4964281;28;20197;-81
2022/05/29 02:11:27;;;;;;;4.63;2.53;;;;;;;12.79;59.48;95119.63;4967589;28;20205;-83
2022/05/29 02:14:00;;;;;;;4.83;2.90;;;;;;;12.81;59.47;95122.78;4969832;28;20629;-81
2022/05/29 02:16:33;;;;;;;3.13;2.50;;;;;;;12.65;59.55;95112.88;4966301;28;20231;-83
2022/05/29 02:19:06;;;;;;;3.67;2.40;;;;;;;12.62;59.12;95115.88;4950612;28;20204;-82
2022/05/29 02:21:38;;;;;;;3.60;2.70;;;;;;;12.48;59.86;95111.72;4967151;28;20203;-82
2022/05/29 02:24:09;;;;;;;3.37;2.43;;;;;;;12.54;59.63;95109.09;4965833;28;20236;-83
2022/05/29 02:26:41;;;;;;;3.97;2.60;;;;;;;12.49;60.14;95098.59;4967421;28;20200;-81
2022/05/29 02:29:12;;;;;;;4.77;2.67;;;;;;;12.50;59.63;95089.88;4966583;28;20204;-83
2022/05/29 02:31:49;;;;;;;4.53;2.70;;;;;;;12.52;59.46;95095.59;4959076;28;20235;-83
2022/05/29 02:34:26;;;;;;;3.33;2.50;;;;;;;12.48;59.51;95091.84;4960148;28;20234;-83
2022/05/29 02:37:03;;;;;;;4.73;2.83;;;;;;;12.32;60.05;95098.19;4967750;28;20219;-83
2022/05/29 02:39:42;;;;;;;3.47;2.60;;;;;;;12.27;60.59;95094.63;4967518;28;20207;-83
2022/05/29 02:42:22;;;;;;;3.77;2.70;;;;;;;12.25;60.06;95100.00;4955679;28;20297;-83
2022/05/29 02:45:03;;;;;;;3.73;3.20;;;;;;;12.33;60.24;95088.66;4962975;28;20220;-81
2022/05/29 02:47:37;;;;;;;6.87;3.43;;;;;;;12.40;59.63;95090.25;4962373;28;20208;-83
2022/05/29 02:50:17;;;;;;;5.93;3.53;;;;;;;12.35;59.80;95090.06;4936262;29;20209;-83
2022/05/29 02:52:44;;;;;;;5.13;3.50;;;;;;;12.40;59.24;95082.50;4950791;28;20229;-81
2022/05/29 02:55:11;;;;;;;4.63;3.27;;;;;;;12.40;59.34;95076.56;4966755;28;20231;-83
2022/05/29 02:57:37;;;;;;;4.73;3.23;;;;;;;12.33;60.32;95073.97;4964677;28;20212;-80
2022/05/29 03:00:11;;;;;;;4.27;2.90;;;;;;;12.23;60.45;95068.44;4962712;28;20207;-80
2022/05/29 03:02:46;;;;;;;4.33;2.97;;;;;;;12.21;59.74;95065.25;4958200;28;20235;-81
2022/05/29 03:05:21;;;;;;;5.57;2.90;;;;;;;11.72;61.54;95073.31;4961323;28;20618;-83
2022/05/29 03:08:06;;;;;;;5.70;2.80;;;;;;;11.68;61.97;95066.97;4966890;28;20216;-83
2022/05/29 03:10:36;;;;;;;3.10;2.53;;;;;;;11.68;61.77;95072.91;4967952;28;20849;-83
2022/05/29 03:13:10;;;;;;;2.57;2.33;;;;;;;11.74;61.80;95068.75;4954305;28;20220;-83
2022/05/29 03:15:50;;;;;;;3.97;2.83;;;;;;;11.65;62.76;95063.00;4963880;28;20223;-83
2022/05/29 03:18:33;;;;;;;3.57;2.50;;;;;;;11.74;62.40;95068.75;4959578;28;20211;-82
2022/05/29 03:21:06;;;;;;;3.77;2.43;;;;;;;11.86;61.52;95066.44;4971846;28;20255;-81
2022/05/29 03:23:42;;;;;;;2.90;2.60;;;;;;;11.98;61.12;95063.06;4969154;28;20720;-82
2022/05/29 03:26:16;;;;;;;2.80;2.50;;;;;;;12.06;60.85;95064.66;4960797;28;20199;-83
2022/05/29 03:28:48;;;;;;;3.40;2.60;;;;;;;12.13;60.14;95065.44;4970637;28;20258;-81
2022/05/29 03:31:21;;;;;;;3.20;2.50;;;;;;;12.18;60.22;95057.09;4960423;28;20201;-83
2022/05/29 03:33:50;;;;;;;4.13;3.10;;;;;;;12.27;59.62;95054.13;4971624;28;20256;-83
2022/05/29 03:36:16;;;;;;;5.37;3.50;;;;;;;12.22;59.14;95050.56;4968373;28;20235;-81
2022/05/29 03:38:43;;;;;;;3.47;2.93;;;;;;;12.14;59.51;95058.47;4971020;28;20556;-83
2022/05/29 03:41:15;;;;;;;3.60;2.83;;;;;;;12.02;60.07;95060.88;4974617;28;20204;-82
2022/05/29 03:43:42;;;;;;;4.27;2.90;;;;;;;11.80;61.26;95052.53;4955039;28;20238;-82
2022/05/29 03:46:08;;;;;;;4.40;2.90;;;;;;;11.55;61.78;95057.41;4976207;28;20223;-80
2022/05/29 03:48:36;;;;;;;4.27;2.40;;;;;;;11.42;62.06;95054.81;4968818;28;20267;-83
2022/05/29 03:51:06;;;;;;;3.33;2.30;;;;;;;11.30;62.67;95064.88;4956927;28;20213;-81
2022/05/29 03:53:33;;;;;;;3.30;2.57;;;;;;;11.51;62.26;95056.22;4971803;28;20232;-80
2022/05/29 03:55:59;;;;;;;3.83;2.60;;;;;;;11.57;61.66;95057.22;4966908;28;20228;-83
2022/05/29 03:58:26;;;;;;;2.47;2.10;;;;;;;11.55;61.79;95065.13;4961312;28;20212;-82
2022/05/29 04:00:53;;;;;;;3.00;2.63;;;;;;;11.63;61.20;95066.75;4968594;28;20200;-81
2022/05/29 04:03:20;;;;;;;4.93;2.40;;;;;;;11.69;61.26;95064.19;4959471;28;20608;-83
2022/05/29 04:05:47;;;;;;;3.50;2.20;;;;;;;11.78;61.88;95062.25;4966731;28;20600;-82
2022/05/29 04:13:44;;;;;;;2.80;2.30;;;;;;;11.92;61.70;95048.38;4970912;28;20235;-83
2022/05/29 04:16:11;;;;;;;4.23;2.27;;;;;;;11.81;61.21;95043.00;4970553;28;20418;-82
2022/05/29 04:18:38;;;;;;;4.33;2.50;;;;;;;11.89;61.48;95046.19;4968018;28;20205;-80
2022/05/29 04:21:06;;;;;;;3.27;2.20;;;;;;;12.03;60.75;95047.78;4968836;28;20204;-83
2022/05/29 04:23:33;;;;;;;3.80;2.27;;;;;;;12.13;60.01;95042.22;4968420;28;20243;-83
2022/05/29 04:26:00;;;;;;;6.23;2.40;;;;;;;12.20;60.00;95031.91;4969495;28;20219;-82
2022/05/29 04:28:26;;;;;;;3.03;2.07;;;;;;;12.34;59.09;95031.66;4965721;28;20684;-83
2022/05/29 04:30:53;;;;;;;4.03;2.40;;;;;;;12.50;58.84;95029.69;4975543;28;20656;-83
2022/05/29 04:33:19;;;;;;;3.83;2.57;;;;;;;12.56;59.20;95027.06;4965787;28;20920;-83
2022/05/29 04:35:51;;;;;;;3.30;2.30;;;;;;;12.64;59.08;95019.13;4966749;28;20291;-83
2022/05/29 04:38:20;;;;;;;2.97;2.00;;;;;;;12.64;58.97;95026.06;4965829;28;20223;-83
2022/05/29 04:40:47;;;;;;;2.67;2.33;;;;;;;12.76;58.76;95011.53;4964025;28;20208;-83
2022/05/29 04:43:14;;;;;;;2.63;2.10;;;;;;;12.91;58.27;95006.91;4963979;28;20355;-83
2022/05/29 04:45:44;;;;;;;3.10;2.47;;;;;;;13.06;58.47;95014.41;4961934;28;20273;-82
2022/05/29 04:48:11;;;;;;;3.27;2.30;;;;;;;13.08;58.81;95015.00;4952344;28;20207;-82
2022/05/29 04:50:38;;;;;;;3.37;2.10;;;;;;;13.13;58.73;95009.97;4964869;28;20232;-80
2022/05/29 04:53:06;;;;;;;3.93;2.10;;;;;;;13.64;71.59;95007.34;4954994;28;20236;-84
2022/05/29 04:55:33;;;;;;;4.30;2.10;;;;;;;14.39;69.66;95021.09;4964906;28;20221;-84
2022/05/29 04:58:00;;;;;;;3.07;2.27;;;;;;;14.83;59.37;95020.03;4965712;28;20208;-82
2022/05/29 05:00:26;;;;;;;3.37;2.50;;;;;;;14.78;56.94;95030.28;4957867;28;20204;-83
2022/05/29 05:02:53;;;;;;;2.90;2.40;;;;;;;14.54;56.70;95020.78;4965094;28;20235;-80
2022/05/29 05:05:20;;;;;;;4.50;2.53;;;;;;;14.28;56.88;95026.16;4963505;28;20236;-82
2022/05/29 05:07:46;;;;;;;3.33;3.03;;;;;;;14.08;57.44;95021.16;4971251;28;20211;-80
2022/05/29 05:10:15;;;;;;;4.80;3.00;;;;;;;14.10;57.54;95026.91;4958010;28;20212;-83
2022/05/29 05:12:43;;;;;;;3.67;3.20;;;;;;;14.15;57.45;95034.84;4973327;28;20231;-81
2022/05/29 05:15:12;;;;;;;4.03;3.20;;;;;;;14.04;57.86;95031.16;4953717;28;20236;-83
2022/05/29 05:17:39;;;;;;;6.43;3.30;;;;;;;14.06;58.09;95023.16;4961372;28;20247;-82
2022/05/29 05:20:07;;;;;;;3.60;3.17;;;;;;;13.85;59.07;95026.13;4964210;28;20676;-81
2022/05/29 05:22:34;;;;;;;3.77;3.10;;;;;;;13.81;59.02;95029.13;4972324;28;20251;-81
2022/05/29 05:25:01;;;;;;;3.83;3.43;;;;;;;13.66;59.73;95033.78;4961845;28;20232;-83
2022/05/29 05:27:28;;;;;;;5.47;3.47;;;;;;;13.78;59.23;95034.72;4954618;28;20230;-83
2022/05/29 05:29:55;;;;;;;3.83;3.30;;;;;;;13.66;59.32;95040.78;4958884;28;20209;-82
2022/05/29 05:32:22;;;;;;;4.03;3.60;;;;;;;13.63;59.32;95036.81;4960639;28;20209;-80
2022/05/29 05:34:49;;;;;;;4.60;3.40;;;;;;;13.68;59.25;95042.13;4956353;28;20228;-82
2022/05/29 05:37:16;;;;;;;6.23;3.77;;;;;;;13.82;59.42;95040.28;4968385;28;20232;-82
2022/05/29 05:39:43;;;;;;;4.00;3.60;;;;;;;13.77;58.87;95043.47;4965700;28;20208;-80
2022/05/29 05:42:10;;;;;;;4.27;3.30;;;;;;;13.77;57.96;95051.25;4966507;28;20207;-81
2022/05/29 05:44:37;;;;;;;3.67;2.90;;;;;;;13.62;56.25;95053.34;4959244;28;20220;-81
2022/05/29 05:47:07;;;;;;;3.17;2.87;;;;;;;13.60;56.25;95047.56;4959056;28;20684;-81
2022/05/29 05:49:33;;;;;;;5.83;3.13;;;;;;;13.49;55.79;95055.97;4966498;28;20255;-81
2022/05/29 05:52:00;;;;;;;6.40;3.27;;;;;;;13.47;55.82;95050.22;4966542;28;20239;-82
2022/05/29 05:54:30;;;;;;;3.90;3.00;;;;;;;13.49;56.48;95048.22;4964750;28;20238;-82
2022/05/29 05:56:57;;;;;;;3.43;2.70;;;;;;;13.67;55.90;95055.28;4966125;28;20616;-81
2022/05/29 05:59:23;;;;;;;3.73;2.80;;;;;;;13.66;54.98;95051.13;4954954;28;20204;-81
2022/05/29 06:01:50;;;;;;;2.97;2.77;;;;;;;13.69;54.75;95046.31;4964733;28;20213;-82
2022/05/29 06:04:18;;;;;;;4.03;2.70;;;;;;;13.67;54.18;95050.88;4965565;28;20236;-82
2022/05/29 06:06:44;;;;;;;5.03;2.90;;;;;;;13.60;55.41;95050.16;4964820;28;20200;-83
2022/05/29 06:09:10;;;;;;;2.93;2.53;;;;;;;13.60;55.18;95039.81;4958258;28;20214;-83
2022/05/29 06:11:39;;;;;;;2.87;2.57;;;;;;;13.57;54.95;95039.44;4959149;28;20290;-81
2022/05/29 06:14:06;;;;;;;3.50;2.43;;;;;;;13.50;55.38;95044.63;4949728;28;20231;-82
2022/05/29 06:16:33;;;;;;;2.90;2.60;;;;;;;13.57;55.03;95044.59;4966843;28;20785;-83
2022/05/29 06:18:59;;;;;;;7.00;3.03;;;;;;;13.47;53.74;95039.88;4966841;28;20652;-82
2022/05/29 06:21:29;;;;;;;3.17;2.43;;;;;;;13.51;54.07;95048.00;4967941;28;20200;-83
2022/05/29 06:23:55;;;;;;;2.97;2.37;;;;;;;13.59;54.28;95048.56;4956908;28;20229;-83
2022/05/29 06:26:22;;;;;;;3.53;2.30;;;;;;;13.62;54.24;95047.38;4967160;28;20196;-80
2022/05/29 06:28:48;;;;;;;4.53;2.20;;;;;;;13.64;52.93;95048.75;4964653;28;20214;-83
2022/05/29 06:31:15;;;;;;;2.93;2.10;;;;;;;13.56;53.26;95045.59;4957188;28;20235;-83
2022/05/29 06:33:41;;;;;;;3.70;2.30;;;;;;;13.51;54.02;95037.66;4962600;28;20727;-83
2022/05/29 06:36:10;;;;;;;2.97;2.40;;;;;;;13.62;54.10;95029.25;4962532;28;20220;-83
2022/05/29 06:38:38;;;;;;;3.33;2.63;;;;;;;13.70;54.14;95024.59;4962971;28;20212;-81
2022/05/29 06:41:06;;;;;;;4.67;2.40;;;;;;;13.73;54.63;95015.63;4936080;29;20214;-82
2022/05/29 06:43:33;;;;;;;4.97;2.87;;;;;;;13.81;54.41;95020.56;4963164;28;20294;-82
2022/05/29 06:46:00;;;;;;;3.87;2.60;;;;;;;13.93;54.94;95018.09;4963238;28;20192;-83
2022/05/29 06:48:27;;;;;;;4.40;2.80;;;;;;;13.87;55.69;95022.28;4966115;28;20200;-81
2022/05/29 06:50:54;;;;;;;28.97;24.90;;;;;;;14.01;54.40;95010.06;4971524;28;20201;-81
2022/05/29 06:53:20;;;;;;;9.53;8.47;;;;;;;13.97;54.53;95014.88;4965941;28;20228;-83
2022/05/29 06:55:53;;;;;;;7.23;6.03;;;;;;;13.96;55.00;95018.47;4954297;28;20230;-82
2022/05/29 06:58:19;;;;;;;3.10;2.80;;;;;;;14.04;54.29;95028.56;4958407;28;20216;-81
2022/05/29 07:08:58;;;;;;;6.13;2.73;;;;;;;13.77;53.63;95020.19;4936066;29;20209;-83
2022/05/29 07:11:30;;;;;;;2.43;2.20;;;;;;;13.83;54.01;95016.78;4936022;29;20216;-83
2022/05/29 07:13:57;;;;;;;3.00;2.70;;;;;;;14.03;53.42;95024.38;4935356;28;20243;-82
2022/05/29 07:16:24;;;;;;;3.30;2.67;;;;;;;14.07;53.23;95030.72;4936262;29;20229;-82
2022/05/29 07:18:50;;;;;;;6.57;2.67;;;;;;;14.18;53.42;95026.66;4950480;29;20197;-82
2022/05/29 07:21:23;;;;;;;2.73;2.33;;;;;;;14.28;53.81;95020.97;4937285;29;20822;-83
2022/05/29 07:23:50;;;;;;;4.70;2.73;;;;;;;14.26;53.69;95020.41;4955194;28;20239;-83
2022/05/29 07:26:17;;;;;;;8.20;2.97;;;;;;;14.38;56.03;95009.13;4954645;28;20208;-80
2022/05/29 07:28:45;;;;;;;10.83;3.20;;;;;;;14.66;58.20;95021.63;4954188;28;20239;-82
2022/05/29 07:31:12;;;;;;;19.00;5.43;;;;;;;14.93;55.04;95036.91;4958970;28;20275;-81
2022/05/29 07:33:39;;;;;;;7.63;3.60;;;;;;;15.10;53.77;95030.13;4966812;28;20295;-82
2022/05/29 07:36:08;;;;;;;39.00;34.53;;;;;;;15.23;52.88;95021.38;4967797;28;20232;-83
2022/05/29 07:38:34;;;;;;;10.20;9.10;;;;;;;15.20;54.53;95030.41;4958788;28;20201;-82
2022/05/29 07:41:01;;;;;;;3.17;2.78;;;;;;;15.42;50.53;95031.50;4963782;28;20216;-80
2022/05/29 07:43:26;;;;;;;5.50;3.92;;;;;;;15.36;51.81;95037.59;4965981;28;20228;-82
2022/05/29 07:45:57;;;;;;;4.60;2.30;;;;;;;15.22;49.65;95023.19;4967935;28;20664;-83
2022/05/29 07:48:27;;;;;;;5.13;2.30;;;;;;;15.24;50.33;95021.16;4965483;28;20227;-81
2022/05/29 07:50:54;;;;;;;5.05;2.53;;;;;;;15.22;50.35;95020.59;4953826;28;20565;-81
2022/05/29 07:53:21;;;;;;;2.70;2.25;;;;;;;15.30;51.01;95017.72;4964683;28;20232;-82
2022/05/29 07:55:48;;;;;;;2.28;2.08;;;;;;;15.43;52.30;95027.91;4959512;28;20212;-82
2022/05/29 07:58:17;;;;;;;4.00;2.40;;;;;;;15.48;52.23;95025.44;4963389;28;20231;-82
2022/05/29 08:00:43;;;;;;;4.28;2.70;;;;;;;15.48;52.21;95020.25;4965775;28;20208;-82
2022/05/29 08:03:11;;;;;;;5.05;2.80;;;;;;;15.56;52.21;95032.16;4955180;28;20316;-82
2022/05/29 08:05:38;;;;;;;4.45;2.70;;;;;;;15.67;51.69;95036.59;4959777;28;20232;-82
2022/05/29 08:08:08;;;;;;;2.97;2.75;;;;;;;15.78;51.13;95030.63;4953653;28;20825;-81
2022/05/29 08:10:37;;;;;;;2.97;2.53;;;;;;;15.67;50.25;95030.59;4964806;28;20283;-82
2022/05/29 08:13:03;;;;;;;3.75;2.67;;;;;;;15.46;51.68;95019.69;4953894;28;20220;-82
2022/05/29 08:15:32;;;;;;;4.20;2.40;;;;;;;15.31;50.95;95014.09;5005586;23;20230;-81
2022/05/29 08:17:58;;;;;;;4.95;2.45;;;;;;;15.38;50.72;95019.22;5012719;28;20235;-81
2022/05/29 08:20:27;;;;;;;3.47;2.20;;;;;;;15.36;50.21;95026.41;5003233;28;20208;-81
2022/05/29 08:22:53;;;;;;;3.25;2.20;;;;;;;15.15;49.53;95031.06;5013573;28;20536;-81
2022/05/29 08:30:54;;;;;;;3.80;2.88;;;;;;;15.52;49.02;95034.38;4986090;28;20243;-80
2022/05/29 08:33:23;;;;;;;3.53;2.53;;;;;;;15.49;47.77;95037.41;4995786;28;20204;-81
2022/05/29 08:35:55;;;;;;;6.97;2.40;;;;;;;15.60;48.58;95035.88;4998842;28;20224;-81
2022/05/29 08:38:21;;;;;;;3.88;2.10;;;;;;;15.76;49.46;95022.31;4994444;28;20274;-81
2022/05/29 08:40:52;;;;;;;3.45;2.40;;;;;;;15.95;48.95;95017.81;4991160;28;20228;-81
2022/05/29 08:43:26;;;;;;;3.30;2.47;;;;;;;15.97;49.27;95020.19;4983314;28;20303;-80
2022/05/29 08:45:53;;;;;;;3.08;2.42;;;;;;;16.19;48.94;95019.41;4996409;28;20231;-81
2022/05/29 08:48:21;;;;;;;2.58;2.28;;;;;;;16.40;47.30;95025.88;4990985;28;20257;-81
2022/05/29 08:50:59;;;;;;;3.15;2.28;;;;;;;16.76;47.85;95021.47;4984239;28;20246;-80
2022/05/29 08:53:35;;;;;;;3.58;2.45;;;;;;;16.76;46.66;95022.25;4990123;28;20199;-81
2022/05/29 08:56:11;;;;;;;3.00;2.20;;;;;;;16.99;46.38;95025.84;4991710;28;20247;-81
2022/05/29 08:58:51;;;;;;;2.53;2.30;;;;;;;17.28;45.16;95027.47;4992156;28;20227;-82
2022/05/29 09:01:23;;;;;;;3.42;1.98;;;;;;;16.95;45.35;95035.09;4982357;28;20255;-80
2022/05/29 09:03:55;;;;;;;7.93;6.30;;;;;;;16.82;44.70;95023.94;4985127;28;20223;-80
2022/05/29 09:06:28;;;;;;;2.85;1.92;;;;;;;16.79;43.31;95008.00;4991294;28;20274;-82
2022/05/29 09:09:02;;;;;;;2.40;1.75;;;;;;;17.13;44.74;95003.72;4991433;28;20247;-81
2022/05/29 09:11:33;;;;;;;2.10;1.90;;;;;;;17.31;45.09;95002.78;4999532;28;20203;-81
2022/05/29 09:14:09;;;;;;;3.05;1.98;;;;;;;17.31;44.34;95006.19;4983391;28;20254;-80
2022/05/29 09:16:43;;;;;;;3.10;2.20;;;;;;;17.29;43.84;95013.44;4992561;28;20274;-80
2022/05/29 09:19:15;;;;;;;2.97;2.15;;;;;;;16.95;44.28;95015.09;4992239;28;20224;-82
2022/05/29 09:21:52;;;;;;;2.38;1.90;;;;;;;16.78;45.08;95011.63;4988578;28;20224;-81
2022/05/29 09:24:33;;;;;;;4.50;2.20;;;;;;;16.41;45.58;95005.88;4996405;28;20294;-81
2022/05/29 09:27:00;;;;;;;17.00;3.67;;;;;;;16.36;46.63;95010.94;4987867;28;20200;-82
2022/05/29 09:29:26;;;;;;;6.05;2.40;;;;;;;16.30;46.21;95015.25;4997753;28;20254;-81
2022/05/29 09:31:53;;;;;;;4.40;1.98;;;;;;;16.33;45.87;95016.63;4992462;28;20200;-80
2022/05/29 09:34:19;;;;;;;2.70;1.90;;;;;;;16.40;46.87;95006.88;4991753;28;20275;-80
2022/05/29 09:36:55;;;;;;;2.58;1.90;;;;;;;16.27;45.38;95018.31;4994631;28;20209;-81
2022/05/29 09:39:27;;;;;;;3.55;2.10;;;;;;;16.31;46.46;95019.44;4996776;28;20289;-80
2022/05/29 09:42:01;;;;;;;2.47;2.00;;;;;;;16.30;48.25;95024.84;4991392;28;20200;-81
2022/05/29 09:44:28;;;;;;;3.30;2.30;;;;;;;16.25;48.41;95022.94;5005043;28;20239;-81
2022/05/29 09:46:55;;;;;;;3.97;2.20;;;;;;;16.17;47.35;95023.25;5004759;28;20306;-80
2022/05/29 09:49:42;;;;;;;3.90;2.42;;;;;;;16.24;47.87;95022.13;4991350;28;20232;-81
2022/05/29 09:52:13;;;;;;;3.58;2.38;;;;;;;16.09;47.72;95013.22;4993317;28;20208;-81
2022/05/29 09:54:45;;;;;;;2.72;2.08;;;;;;;16.08;48.07;95015.00;4995076;28;20220;-82
2022/05/29 09:57:20;;;;;;;2.63;2.10;;;;;;;16.03;48.29;95022.69;4983578;28;20228;-80
2022/05/29 09:59:47;;;;;;;3.58;2.58;;;;;;;16.06;47.51;95011.06;4982884;28;20234;-80
2022/05/29 10:02:27;;;;;;;9.35;7.70;;;;;;;16.15;49.11;95017.50;4982972;28;20212;-81
2022/05/29 10:04:56;;;;;;;3.28;2.92;;;;;;;16.16;48.27;95009.47;4983896;28;20227;-80
2022/05/29 10:07:33;;;;;;;3.53;2.33;;;;;;;16.00;47.28;95001.56;4983563;28;20200;-80
2022/05/29 10:10:03;;;;;;;2.42;2.00;;;;;;;15.80;47.11;95004.44;4983270;28;20231;-80
2022/05/29 10:12:42;;;;;;;3.78;2.28;;;;;;;15.85;47.61;95007.97;4982584;28;20212;-80
2022/05/29 10:15:38;;;;;;;3.80;1.95;;;;;;;15.93;47.34;95003.47;4980652;28;20232;-80
2022/05/29 10:18:32;;;;;;;6.07;2.10;;;;;;;15.86;47.07;95001.78;4979915;28;20231;-81
2022/05/29 10:21:09;;;;;;;3.92;1.90;;;;;;;15.99;48.16;94998.16;4983050;28;20223;-80
2022/05/29 10:23:38;;;;;;;2.88;2.20;;;;;;;15.93;49.43;94993.09;4963679;28;20597;-80
2022/05/29 10:26:11;;;;;;;4.45;2.15;;;;;;;16.01;50.37;94992.75;4981539;28;20216;-81
2022/05/29 10:28:39;;;;;;;2.58;1.88;;;;;;;16.03;49.83;94986.31;4982060;28;20282;-81
2022/05/29 10:31:08;;;;;;;3.08;2.10;;;;;;;16.01;50.05;94990.94;4982175;28;20208;-80
2022/05/29 10:33:35;;;;;;;3.50;2.20;;;;;;;15.97;49.62;94984.63;4982687;28;20204;-80
2022/05/29 10:36:12;;;;;;;2.65;1.90;;;;;;;15.92;49.39;94991.50;4982495;28;20251;-80
2022/05/29 10:38:40;;;;;;;3.22;2.20;;;;;;;15.98;49.73;94993.97;4981280;28;20235;-79
2022/05/29 10:41:10;;;;;;;2.78;1.90;;;;;;;15.93;48.90;94987.91;4981316;28;20212;-80
2022/05/29 10:43:41;;;;;;;3.67;2.25;;;;;;;15.94;48.80;94990.28;4981895;28;20204;-81
2022/05/29 10:46:15;;;;;;;3.22;2.25;;;;;;;15.84;48.15;94987.44;4983483;28;20232;-81
2022/05/29 10:48:59;;;;;;;3.03;2.03;;;;;;;15.75;47.64;94992.16;4991365;28;20232;-80
2022/05/29 10:51:33;;;;;;;1.67;1.40;;;;;;;15.62;47.59;94994.16;4981702;28;20428;-81
2022/05/29 10:54:14;;;;;;;4.13;1.55;;;;;;;15.61;46.57;94984.78;4996033;28;20273;-79
2022/05/29 10:56:51;;;;;;;2.78;1.50;;;;;;;15.50;47.80;94996.69;4999960;28;20751;-80
2022/05/29 10:59:55;;;;;;;3.42;1.38;;;;;;;15.08;50.45;95004.41;4992936;28;20231;-80
2022/05/29 11:05:32;;;;;;;1.30;1.13;;;;;;;14.68;51.73;95011.06;4994614;28;20281;-80
2022/05/29 11:08:15;;;;;;;1.33;1.20;;;;;;;14.60;52.37;95004.38;4998935;28;20238;-80
2022/05/29 11:11:12;;;;;;;2.10;1.38;;;;;;;14.59;53.74;95007.19;5003025;28;20282;-79
2022/05/29 11:14:04;;;;;;;3.20;1.60;;;;;;;14.63;55.09;95003.13;4996129;28;20250;-79
2022/05/29 11:16:41;;;;;;;3.70;1.57;;;;;;;14.47;54.91;95009.66;4990621;28;20204;-80
2022/05/29 11:19:22;;;;;;;1.40;1.30;;;;;;;14.26;57.35;95016.00;4967085;28;20236;-80
2022/05/29 11:22:00;;;;;;;4.13;1.90;;;;;;;14.10;58.37;95008.78;4995215;28;20722;-80
2022/05/29 11:24:49;;;;;;;2.80;1.67;;;;;;;14.13;58.43;95024.69;4994589;28;20227;-80
2022/05/29 11:27:32;;;;;;;2.93;1.80;;;;;;;14.11;60.20;95020.72;4988033;28;20203;-81
2022/05/29 11:30:05;;;;;;;3.80;1.80;;;;;;;14.07;60.66;95029.91;4981621;28;20290;-80
2022/05/29 11:32:49;;;;;;;2.50;1.90;;;;;;;13.86;63.18;95040.63;4984024;28;20200;-79
2022/05/29 11:35:27;;;;;;;4.10;2.50;;;;;;;13.70;64.41;95034.16;4964085;28;20224;-80
2022/05/29 11:38:06;;;;;;;2.83;2.17;;;;;;;13.55;67.67;95041.44;4975363;28;20250;-79
2022/05/29 11:40:36;;;;;;;2.13;1.87;;;;;;;13.40;67.26;95046.88;5002883;28;20232;-80
2022/05/29 11:43:18;;;;;;;2.80;2.23;;;;;;;13.30;69.03;95042.13;4990202;28;20339;-80
2022/05/29 11:51:39;;;;;;;3.43;2.40;;;;;;;13.23;69.88;95043.19;5001174;28;20205;-79
2022/05/29 11:54:10;;;;;;;2.63;2.00;;;;;;;13.12;69.18;95039.41;5001912;28;20204;-80
2022/05/29 11:56:40;;;;;;;2.60;2.30;;;;;;;13.34;69.24;95043.31;5002693;28;20204;-79
2022/05/29 11:59:17;;;;;;;4.97;2.43;;;;;;;13.51;69.05;95042.84;4985492;28;20223;-81
2022/05/29 12:01:48;;;;;;;2.60;2.40;;;;;;;13.62;69.52;95055.13;4998149;28;20211;-80
2022/05/29 12:04:22;;;;;;;5.20;2.40;;;;;;;13.63;69.48;95054.13;4992158;28;20274;-80
2022/05/29 12:06:54;;;;;;;3.30;2.00;;;;;;;13.63;68.45;95044.56;4998621;28;20191;-79
2022/05/29 12:09:25;;;;;;;3.57;2.60;;;;;;;13.57;66.46;95047.97;5001850;28;20224;-80
2022/05/29 12:11:59;;;;;;;2.30;2.10;;;;;;;13.62;68.85;95047.38;4998419;28;20208;-80
2022/05/29 12:14:33;;;;;;;4.63;2.00;;;;;;;13.74;67.82;95048.28;4996362;28;20683;-80
2022/05/29 12:17:07;;;;;;;2.83;2.50;;;;;;;13.76;68.46;95048.88;4997223;28;20257;-80
2022/05/29 12:19:41;;;;;;;5.27;4.37;;;;;;;13.83;68.49;95040.06;4995887;28;20235;-80
2022/05/29 12:22:10;;;;;;;14.57;12.97;;;;;;;13.85;68.02;95039.06;4988207;28;20711;-80